Terminal Aerodrome Forecast
Issued by NWS Fort Wayne, IN

Home | Current Version | Previous Version | Text Only | Print | Product List | Glossary On
Versions: 1 2 3 4 5 6 7 8 9 10 11 12 13 14
000
FTUS43 KIWX 252300
TAFFWA
TAF
KFWA 252325Z 2600/2624 06016G22KT P6SM -RA SCT015 BKN040
      TEMPO 2600/2602 6SM -RA BKN015
     FM260200 05010KT P6SM SCT025 BKN040
     FM260500 04007KT P6SM SCT200
     FM261600 03012G17KT P6SM BKN040=

USA.gov is the U.S. government's official web portal to all federal, state and local government web resources and services.